createdAt,value
2023-03-13T00:00:49.122Z,3.77
2023-03-13T00:03:15.936Z,3.80
2023-03-13T00:05:42.702Z,3.79
2023-03-13T00:08:09.370Z,3.79
2023-03-13T00:10:39.673Z,3.67
2023-03-13T00:13:06.868Z,3.74
2023-03-13T00:15:33.570Z,3.86
2023-03-13T00:18:00.302Z,3.48
2023-03-13T00:20:26.963Z,3.80
2023-03-13T00:22:53.648Z,3.32
2023-03-13T00:25:20.275Z,3.09
2023-03-13T00:27:46.870Z,3.06
2023-03-13T00:30:14.206Z,3.47
2023-03-13T00:32:44.246Z,3.14
2023-03-13T00:35:10.949Z,3.02
2023-03-13T00:37:37.554Z,3.24
2023-03-13T00:40:05.776Z,3.04
2023-03-13T00:42:32.432Z,2.64
2023-03-13T00:44:59.154Z,2.89
2023-03-13T00:47:25.782Z,2.62
2023-03-13T00:49:52.414Z,2.38
2023-03-13T00:52:19.157Z,2.57
2023-03-13T00:54:45.913Z,2.38
2023-03-13T00:57:12.537Z,2.38
2023-03-13T00:59:39.171Z,2.83
2023-03-13T01:02:05.983Z,2.90
2023-03-13T01:04:32.653Z,2.33
2023-03-13T01:06:59.391Z,2.15
2023-03-13T01:09:26.073Z,2.41
2023-03-13T01:11:52.782Z,2.48
2023-03-13T01:14:19.766Z,2.48
2023-03-13T01:16:46.572Z,2.34
2023-03-13T01:19:14.588Z,2.62
2023-03-13T01:21:42.060Z,2.64
2023-03-13T01:24:08.742Z,1.98
2023-03-13T01:26:35.441Z,2.24
2023-03-13T01:29:02.053Z,2.40
2023-03-13T01:31:30.654Z,2.67
2023-03-13T01:33:59.063Z,2.55
2023-03-13T01:36:26.282Z,2.36
2023-03-13T01:38:54.751Z,2.44
2023-03-13T01:41:21.662Z,2.43
2023-03-13T01:43:48.619Z,2.18
2023-03-13T01:46:36.329Z,2.22
2023-03-13T01:49:07.497Z,2.57
2023-03-13T01:51:37.856Z,2.09
2023-03-13T01:54:15.581Z,1.93
2023-03-13T01:57:02.472Z,2.10
2023-03-13T01:59:32.527Z,1.83
2023-03-13T02:02:00.467Z,2.03
2023-03-13T02:04:27.755Z,1.91
2023-03-13T02:06:56.131Z,1.90
2023-03-13T02:09:24.439Z,2.14
2023-03-13T02:11:57.224Z,2.09
2023-03-13T02:14:25.667Z,2.17
2023-03-13T02:16:52.752Z,1.63
2023-03-13T02:19:30.281Z,1.99
2023-03-13T02:22:06.741Z,2.03
2023-03-13T02:24:51.870Z,1.78
2023-03-13T02:27:18.509Z,2.02
2023-03-13T02:29:45.184Z,1.71
2023-03-13T02:32:11.837Z,1.71
2023-03-13T02:34:39.285Z,1.82
2023-03-13T02:37:06.567Z,2.14
2023-03-13T02:39:33.223Z,1.59
2023-03-13T02:42:00.139Z,1.78
2023-03-13T02:44:27.193Z,1.80
2023-03-13T02:46:54.063Z,1.75
2023-03-13T02:49:28.570Z,1.82
2023-03-13T02:51:56.959Z,1.56
2023-03-13T02:54:28.765Z,1.80
2023-03-13T02:57:00.257Z,1.63
2023-03-13T02:59:27.038Z,1.47
2023-03-13T03:01:53.668Z,1.62
2023-03-13T03:04:24.098Z,1.69
2023-03-13T03:06:51.057Z,1.74
2023-03-13T03:09:18.370Z,1.79
2023-03-13T03:11:46.171Z,1.96
2023-03-13T03:14:12.871Z,1.82
2023-03-13T03:16:39.727Z,1.81
2023-03-13T03:19:06.396Z,2.22
2023-03-13T03:21:33.625Z,1.89
2023-03-13T03:24:00.352Z,2.14
2023-03-13T03:26:27.188Z,1.70
2023-03-13T03:28:53.952Z,1.95
2023-03-13T03:31:20.620Z,1.95
2023-03-13T03:33:47.515Z,1.93
2023-03-13T03:36:16.406Z,1.78
2023-03-13T03:38:43.118Z,4.02
2023-03-13T03:41:10.409Z,2.72
2023-03-13T03:43:37.106Z,1.83
2023-03-13T03:46:03.995Z,2.53
2023-03-13T03:48:30.687Z,1.71
2023-03-13T03:50:57.362Z,1.79
2023-03-13T03:53:24.055Z,1.68
2023-03-13T03:55:50.722Z,1.68
2023-03-13T03:58:17.361Z,1.48
2023-03-13T04:00:45.016Z,1.53
2023-03-13T04:03:11.732Z,1.78
2023-03-13T04:05:38.351Z,1.80
2023-03-13T04:08:05.373Z,1.86
2023-03-13T04:10:31.998Z,1.66
2023-03-13T04:12:58.627Z,1.58
2023-03-13T04:15:25.270Z,1.52
2023-03-13T04:17:53.456Z,1.57
2023-03-13T04:20:20.256Z,1.68
2023-03-13T04:22:46.952Z,1.65
2023-03-13T04:25:13.614Z,1.71
2023-03-13T04:27:40.243Z,1.79
2023-03-13T04:30:07.595Z,1.71
2023-03-13T04:32:34.302Z,1.75
2023-03-13T04:35:01.018Z,1.66
2023-03-13T04:37:27.719Z,1.86
2023-03-13T04:39:54.364Z,1.69
2023-03-13T04:42:20.981Z,2.13
2023-03-13T04:44:47.684Z,1.82
2023-03-13T04:47:14.363Z,1.71
2023-03-13T04:49:41.002Z,1.73
2023-03-13T04:52:07.649Z,1.62
2023-03-13T04:54:34.266Z,1.94
2023-03-13T04:57:01.018Z,1.48
2023-03-13T04:59:30.685Z,1.63
2023-03-13T05:01:57.359Z,1.84
2023-03-13T05:04:23.988Z,1.79
2023-03-13T05:06:50.624Z,1.64
2023-03-13T05:09:17.269Z,1.68
2023-03-13T05:11:43.900Z,1.78
2023-03-13T05:14:10.523Z,1.78
2023-03-13T05:16:38.379Z,1.69
2023-03-13T05:19:05.014Z,1.71
2023-03-13T05:21:31.657Z,2.04
2023-03-13T05:23:58.322Z,1.65
2023-03-13T05:26:24.936Z,1.56
2023-03-13T05:28:51.583Z,1.77
2023-03-13T05:31:18.262Z,1.68
2023-03-13T05:33:45.094Z,1.70
2023-03-13T05:36:11.775Z,1.60
2023-03-13T05:38:38.447Z,1.62
2023-03-13T05:41:05.161Z,1.56
2023-03-13T05:43:31.829Z,1.74
2023-03-13T05:45:58.549Z,1.75
2023-03-13T05:48:25.214Z,1.41
2023-03-13T05:50:51.871Z,1.47
2023-03-13T05:53:18.583Z,1.88
2023-03-13T05:55:45.250Z,1.79
2023-03-13T05:58:11.956Z,1.60
2023-03-13T06:00:38.698Z,1.87
2023-03-13T06:03:05.351Z,1.65
2023-03-13T06:05:32.021Z,1.76
2023-03-13T06:07:58.647Z,1.64
2023-03-13T06:10:25.265Z,1.67
2023-03-13T06:12:55.727Z,1.68
2023-03-13T06:15:22.433Z,1.71
2023-03-13T06:17:49.176Z,1.43
2023-03-13T06:20:15.828Z,1.73
2023-03-13T06:22:42.516Z,1.90
2023-03-13T06:25:09.418Z,1.91
2023-03-13T06:27:36.141Z,1.89
2023-03-13T06:30:03.296Z,2.02
2023-03-13T06:32:30.059Z,1.95
2023-03-13T06:34:56.782Z,2.12
2023-03-13T06:37:23.434Z,1.87
2023-03-13T06:39:50.130Z,1.28
2023-03-13T06:42:16.780Z,1.24
2023-03-13T06:44:43.465Z,1.62
2023-03-13T06:47:10.151Z,2.18
2023-03-13T06:49:36.897Z,1.76
2023-03-13T06:52:03.583Z,1.83
2023-03-13T06:54:30.422Z,2.23
2023-03-13T06:56:57.137Z,2.23
2023-03-13T06:59:23.731Z,2.75
2023-03-13T07:01:50.826Z,2.70
2023-03-13T07:04:17.549Z,2.78
2023-03-13T07:06:44.350Z,2.12
2023-03-13T07:09:11.011Z,1.72
2023-03-13T07:11:37.637Z,1.70
2023-03-13T07:14:15.635Z,2.41
2023-03-13T07:16:43.206Z,2.06
2023-03-13T07:19:09.892Z,2.70
2023-03-13T07:21:36.554Z,2.74
2023-03-13T07:24:03.336Z,2.90
2023-03-13T07:26:29.979Z,1.99
2023-03-13T07:28:56.636Z,1.88
2023-03-13T07:31:23.411Z,1.70
2023-03-13T07:33:50.095Z,1.90
2023-03-13T07:36:16.856Z,2.26
2023-03-13T07:38:43.653Z,2.30
2023-03-13T07:41:11.882Z,1.90
2023-03-13T07:43:38.496Z,1.50
2023-03-13T07:46:06.262Z,1.99
2023-03-13T07:48:37.365Z,2.09
2023-03-13T07:51:09.060Z,1.55
2023-03-13T07:53:36.040Z,1.58
2023-03-13T07:56:07.691Z,2.02
2023-03-13T07:58:35.644Z,1.24
2023-03-13T08:01:08.549Z,1.15
2023-03-13T08:03:35.274Z,1.27
2023-03-13T08:06:09.798Z,1.17
2023-03-13T08:08:36.627Z,1.26
2023-03-13T08:11:10.689Z,1.28
2023-03-13T08:13:37.488Z,1.40
2023-03-13T08:16:05.266Z,1.54
2023-03-13T08:18:31.948Z,1.75
2023-03-13T08:21:23.634Z,1.55
2023-03-13T08:23:52.942Z,1.39
2023-03-13T08:26:20.386Z,1.37
2023-03-13T08:28:47.938Z,1.35
2023-03-13T08:31:19.511Z,1.10
2023-03-13T08:33:47.656Z,1.06
2023-03-13T08:36:14.273Z,1.21
2023-03-13T08:38:41.029Z,1.50
2023-03-13T08:41:08.644Z,0.98
2023-03-13T08:43:35.315Z,0.80
2023-03-13T08:46:01.957Z,0.95
2023-03-13T08:48:28.667Z,0.82
2023-03-13T08:51:05.797Z,0.86
2023-03-13T08:53:32.866Z,0.96
2023-03-13T08:55:59.660Z,0.94
2023-03-13T08:58:26.374Z,0.86
2023-03-13T09:00:53.012Z,0.98
2023-03-13T09:03:19.734Z,0.88
2023-03-13T09:05:56.053Z,0.75
2023-03-13T09:08:24.520Z,0.91
2023-03-13T09:11:02.525Z,0.89
2023-03-13T09:13:29.640Z,0.82
2023-03-13T09:16:04.535Z,1.03
2023-03-13T09:18:32.627Z,1.10
2023-03-13T09:20:59.346Z,1.08
2023-03-13T09:23:27.405Z,1.07
2023-03-13T09:25:54.957Z,0.79
2023-03-13T09:28:22.944Z,1.06
2023-03-13T09:30:49.649Z,1.17
2023-03-13T09:33:17.186Z,0.97
2023-03-13T09:35:43.996Z,1.36
2023-03-13T09:38:12.433Z,1.02
2023-03-13T09:40:41.698Z,1.24
2023-03-13T09:43:19.833Z,0.96
2023-03-13T09:45:46.478Z,1.02
2023-03-13T09:48:33.919Z,1.13
2023-03-13T09:51:03.453Z,1.01
2023-03-13T09:54:00.468Z,0.86
2023-03-13T09:56:40.817Z,0.93
2023-03-13T09:59:22.130Z,0.87
2023-03-13T10:01:48.895Z,0.94
2023-03-13T10:04:56.160Z,0.87
2023-03-13T10:07:22.812Z,1.03
2023-03-13T10:09:49.459Z,1.05
2023-03-13T10:12:19.555Z,1.09
2023-03-13T10:15:07.384Z,1.05
2023-03-13T10:17:38.378Z,0.92
2023-03-13T10:20:14.531Z,1.09
2023-03-13T10:22:41.192Z,0.93
2023-03-13T10:25:12.215Z,1.02
2023-03-13T10:27:50.489Z,0.94
2023-03-13T10:30:25.786Z,0.97
2023-03-13T10:33:12.289Z,0.99
2023-03-13T10:35:42.497Z,1.08
2023-03-13T10:38:18.972Z,0.92
2023-03-13T10:40:56.918Z,0.95
2023-03-13T10:43:24.960Z,0.97
2023-03-13T10:45:51.858Z,1.02
2023-03-13T10:48:22.189Z,0.87
2023-03-13T10:50:50.393Z,1.14
2023-03-13T10:53:19.943Z,0.92
2023-03-13T10:55:46.555Z,0.89
2023-03-13T10:58:23.500Z,0.86
2023-03-13T11:00:50.155Z,0.83
2023-03-13T11:03:26.489Z,0.93
2023-03-13T11:06:02.322Z,0.80
2023-03-13T11:08:34.710Z,0.83
2023-03-13T11:11:03.035Z,0.78
2023-03-13T11:13:49.806Z,0.88
2023-03-13T11:16:26.996Z,0.73
2023-03-13T11:19:29.628Z,0.85
2023-03-13T11:22:28.446Z,0.82
2023-03-13T11:25:28.958Z,0.80
2023-03-13T11:27:55.499Z,1.09
2023-03-13T11:30:44.017Z,1.08
2023-03-13T11:33:21.931Z,1.49
2023-03-13T11:36:02.609Z,1.22
2023-03-13T11:38:36.111Z,0.89
2023-03-13T11:41:14.903Z,0.82
2023-03-13T11:43:55.340Z,0.95
2023-03-13T11:46:31.707Z,1.07
2023-03-13T11:49:04.282Z,1.12
2023-03-13T11:51:52.584Z,1.37
2023-03-13T11:54:28.538Z,1.46
2023-03-13T11:57:00.618Z,1.10
2023-03-13T11:59:41.750Z,1.17
2023-03-13T12:02:21.753Z,1.37
2023-03-13T12:04:58.255Z,1.16
2023-03-13T12:07:34.516Z,1.15
2023-03-13T12:10:12.162Z,1.14
2023-03-13T12:12:50.474Z,1.06
2023-03-13T12:15:28.577Z,1.02
2023-03-13T12:18:07.394Z,0.98
2023-03-13T12:20:48.437Z,1.00
2023-03-13T12:23:20.378Z,1.19
2023-03-13T12:26:05.028Z,0.97
2023-03-13T12:28:44.687Z,1.04
2023-03-13T12:31:14.717Z,0.99
2023-03-13T12:34:25.696Z,0.99
2023-03-13T12:37:23.907Z,1.00
2023-03-13T12:40:16.143Z,1.14
2023-03-13T12:43:06.292Z,1.10
2023-03-13T12:45:35.519Z,1.12
2023-03-13T12:48:37.672Z,1.21
2023-03-13T12:51:42.376Z,1.21
2023-03-13T12:54:30.411Z,1.06
2023-03-13T12:57:11.948Z,0.98
2023-03-13T12:59:42.876Z,1.24
2023-03-13T13:02:28.393Z,1.41
2023-03-13T13:04:55.661Z,1.24
2023-03-13T13:07:40.368Z,1.13
2023-03-13T13:10:10.112Z,1.08
2023-03-13T13:13:21.588Z,1.19
2023-03-13T13:15:58.097Z,1.21
2023-03-13T13:18:29.042Z,0.92
2023-03-13T13:21:04.457Z,1.04
2023-03-13T13:23:34.987Z,1.02
2023-03-13T13:26:26.562Z,0.96
2023-03-13T13:28:53.910Z,1.50
2023-03-13T13:31:48.401Z,1.27
2023-03-13T13:34:37.970Z,1.18
2023-03-13T13:37:13.337Z,1.29
2023-03-13T13:39:40.592Z,1.18
2023-03-13T13:42:32.191Z,1.08
2023-03-13T13:45:14.327Z,1.15
2023-03-13T13:47:41.864Z,1.04
2023-03-13T13:50:27.685Z,1.22
2023-03-13T13:53:14.801Z,1.24
2023-03-13T13:55:44.771Z,1.03
2023-03-13T13:58:19.461Z,1.16
2023-03-13T14:01:05.324Z,1.01
2023-03-13T14:03:32.638Z,0.96
2023-03-13T14:06:03.852Z,0.91
2023-03-13T14:08:31.384Z,0.98
2023-03-13T14:11:07.379Z,1.22
2023-03-13T14:13:34.015Z,1.86
2023-03-13T14:16:24.901Z,0.95
2023-03-13T14:18:51.680Z,1.85
2023-03-13T14:21:25.211Z,1.95
2023-03-13T14:23:52.059Z,1.27
2023-03-13T14:26:23.443Z,1.09
2023-03-13T14:28:59.900Z,1.10
2023-03-13T14:31:37.221Z,1.21
2023-03-13T14:34:05.641Z,1.50
2023-03-13T14:37:14.895Z,1.84
2023-03-13T14:39:44.405Z,1.34
2023-03-13T14:42:12.166Z,1.40
2023-03-13T14:44:38.862Z,1.60
2023-03-13T14:47:07.480Z,1.61
2023-03-13T14:49:34.320Z,1.49
2023-03-13T14:52:22.549Z,1.16
2023-03-13T14:55:00.258Z,1.82
2023-03-13T14:57:27.360Z,1.66
2023-03-13T14:59:55.022Z,1.50
2023-03-13T15:02:30.927Z,1.09
2023-03-13T15:05:01.791Z,0.81
2023-03-13T15:07:40.895Z,0.97
2023-03-13T15:10:31.559Z,0.95
2023-03-13T15:12:58.239Z,0.92
2023-03-13T15:15:25.317Z,1.17
2023-03-13T15:17:51.948Z,1.07
2023-03-13T15:20:18.664Z,1.26
2023-03-13T15:22:45.875Z,1.20
2023-03-13T15:25:16.133Z,1.20
2023-03-13T15:27:43.007Z,1.57
2023-03-13T15:30:14.738Z,1.42
2023-03-13T15:32:41.450Z,1.40
2023-03-13T15:35:29.061Z,1.26
2023-03-13T15:37:59.425Z,1.27
2023-03-13T15:40:26.574Z,1.37
2023-03-13T15:42:53.535Z,1.08
2023-03-13T15:45:20.367Z,0.79
2023-03-13T15:47:47.059Z,0.96
2023-03-13T15:50:15.007Z,1.21
2023-03-13T15:52:41.854Z,2.11
2023-03-13T15:55:10.496Z,2.09
2023-03-13T15:57:37.851Z,1.05
2023-03-13T16:00:05.058Z,1.00
2023-03-13T16:02:31.760Z,1.09
2023-03-13T16:04:58.362Z,1.01
2023-03-13T16:07:25.133Z,1.02
2023-03-13T16:09:52.933Z,0.97
2023-03-13T16:12:19.641Z,1.12
2023-03-13T16:14:46.303Z,10.73
2023-03-13T16:17:17.222Z,4.91
2023-03-13T16:19:44.387Z,4.80
2023-03-13T16:22:11.038Z,1.60
2023-03-13T16:24:37.714Z,2.00
2023-03-13T16:27:13.061Z,1.35
2023-03-13T16:29:39.668Z,1.39
2023-03-13T16:32:06.531Z,1.61
2023-03-13T16:34:33.284Z,1.65
2023-03-13T16:36:59.966Z,2.34
2023-03-13T16:39:26.645Z,1.80
2023-03-13T16:41:53.368Z,1.97
2023-03-13T16:44:20.177Z,1.27
2023-03-13T16:47:02.800Z,1.34
2023-03-13T16:49:31.204Z,1.19
2023-03-13T16:51:57.811Z,0.98
2023-03-13T16:54:24.401Z,1.04
2023-03-13T16:56:51.079Z,0.96
2023-03-13T16:59:18.166Z,0.96
2023-03-13T17:01:45.256Z,0.88
2023-03-13T17:04:11.896Z,0.85
2023-03-13T17:06:40.050Z,0.97
2023-03-13T17:09:16.092Z,0.92
2023-03-13T17:11:43.018Z,1.06
2023-03-13T17:14:09.699Z,0.97
2023-03-13T17:16:39.088Z,0.81
2023-03-13T17:19:05.745Z,0.89
2023-03-13T17:21:32.486Z,1.07
2023-03-13T17:23:59.170Z,1.26
2023-03-13T17:26:29.353Z,1.08
2023-03-13T17:28:56.829Z,1.52
2023-03-13T17:31:24.903Z,1.47
2023-03-13T17:33:51.616Z,1.49
2023-03-13T17:36:26.202Z,1.33
2023-03-13T17:38:54.289Z,1.46
2023-03-13T17:41:22.644Z,1.30
2023-03-13T17:43:49.336Z,1.20
2023-03-13T17:46:40.515Z,1.33
2023-03-13T17:49:07.184Z,1.49
2023-03-13T17:51:34.224Z,1.33
2023-03-13T17:54:00.897Z,1.47
2023-03-13T17:56:35.401Z,1.61
2023-03-13T17:59:02.196Z,1.81
2023-03-13T18:01:30.524Z,1.79
2023-03-13T18:03:57.270Z,1.48
2023-03-13T18:06:30.802Z,1.56
2023-03-13T18:08:59.154Z,1.88
2023-03-13T18:11:26.148Z,1.50
2023-03-13T18:13:52.780Z,2.01
2023-03-13T18:16:25.288Z,2.11
2023-03-13T18:18:52.422Z,1.97
2023-03-13T18:21:19.499Z,1.82
2023-03-13T18:23:46.164Z,1.47
2023-03-13T18:26:35.843Z,1.63
2023-03-13T18:29:03.427Z,1.55
2023-03-13T18:31:34.543Z,1.77
2023-03-13T18:34:01.530Z,1.89
2023-03-13T18:36:28.200Z,1.75
2023-03-13T18:38:54.861Z,1.94
2023-03-13T18:41:21.468Z,1.85
2023-03-13T18:43:48.299Z,1.87
2023-03-13T18:46:28.078Z,2.89
2023-03-13T18:48:54.778Z,2.10
2023-03-13T18:51:22.131Z,2.00
2023-03-13T18:53:48.767Z,2.27
2023-03-13T18:56:26.211Z,2.41
2023-03-13T18:58:53.552Z,2.39
2023-03-13T19:01:22.266Z,2.35
2023-03-13T19:03:49.045Z,2.39
2023-03-13T19:06:22.854Z,2.47
2023-03-13T19:08:51.190Z,2.76
2023-03-13T19:11:19.862Z,3.01
2023-03-13T19:13:46.528Z,4.99
2023-03-13T19:16:17.067Z,3.66
2023-03-13T19:18:44.508Z,2.87
2023-03-13T19:21:30.289Z,3.02
2023-03-13T19:23:56.987Z,2.81
2023-03-13T19:26:31.244Z,2.45
2023-03-13T19:28:58.198Z,2.70
2023-03-13T19:31:25.041Z,2.59
2023-03-13T19:33:51.750Z,2.83
2023-03-13T19:36:19.070Z,2.61
2023-03-13T19:38:45.854Z,2.67
2023-03-13T19:41:13.367Z,2.71
2023-03-13T19:43:40.098Z,2.49
2023-03-13T19:46:22.170Z,2.52
2023-03-13T19:48:48.940Z,2.62
2023-03-13T19:51:15.664Z,2.53
2023-03-13T19:53:42.445Z,2.63
2023-03-13T19:56:15.271Z,3.01
2023-03-13T19:58:41.897Z,2.67
2023-03-13T20:01:17.264Z,2.67
2023-03-13T20:03:45.606Z,2.76
2023-03-13T20:06:17.185Z,2.72
2023-03-13T20:08:44.202Z,3.09
2023-03-13T20:11:10.866Z,3.17
2023-03-13T20:13:38.082Z,3.73
2023-03-13T20:16:06.320Z,5.02
2023-03-13T20:18:32.951Z,3.02
2023-03-13T20:21:00.918Z,2.91
2023-03-13T20:23:27.621Z,3.79
2023-03-13T20:25:54.291Z,4.40
2023-03-13T20:28:22.347Z,3.79
2023-03-13T20:30:49.034Z,4.44
2023-03-13T20:33:15.785Z,3.45
2023-03-13T20:35:42.830Z,3.45
2023-03-13T20:38:09.507Z,3.72
2023-03-13T20:40:36.592Z,3.62
2023-03-13T20:43:03.533Z,3.57
2023-03-13T20:45:30.564Z,3.20
2023-03-13T20:47:57.426Z,2.62
2023-03-13T20:50:24.204Z,2.98
2023-03-13T20:52:50.868Z,2.73
2023-03-13T20:55:17.706Z,2.31
2023-03-13T20:57:44.437Z,2.23
2023-03-13T21:00:11.651Z,2.00
2023-03-13T21:02:38.447Z,2.26
2023-03-13T21:05:05.351Z,2.43
2023-03-13T21:07:32.103Z,2.08
2023-03-13T21:09:58.713Z,1.73
2023-03-13T21:12:25.379Z,1.37
2023-03-13T21:14:52.034Z,1.23
2023-03-13T21:17:18.873Z,1.00
2023-03-13T21:19:45.580Z,0.99
2023-03-13T21:22:12.258Z,0.93
2023-03-13T21:24:38.920Z,0.91
2023-03-13T21:27:05.602Z,0.71
2023-03-13T21:29:32.290Z,0.78
2023-03-13T21:31:58.955Z,0.71
2023-03-13T21:34:25.657Z,0.73
2023-03-13T21:36:52.302Z,0.83
2023-03-13T21:39:18.961Z,0.64
2023-03-13T21:41:45.584Z,0.66
2023-03-13T21:44:12.301Z,0.70
2023-03-13T21:46:39.180Z,0.46
2023-03-13T21:49:05.818Z,0.33
2023-03-13T21:51:32.429Z,0.39
2023-03-13T21:53:59.064Z,0.70
2023-03-13T21:56:25.667Z,0.36
2023-03-13T21:58:52.336Z,0.40
2023-03-13T22:01:19.045Z,0.47
2023-03-13T22:03:45.770Z,0.65
2023-03-13T22:06:16.754Z,0.67
2023-03-13T22:08:43.447Z,0.56
2023-03-13T22:11:10.204Z,0.56
2023-03-13T22:13:36.852Z,0.50
2023-03-13T22:16:03.700Z,0.61
2023-03-13T22:18:30.432Z,0.70
2023-03-13T22:20:58.087Z,0.58
2023-03-13T22:23:24.756Z,0.58
2023-03-13T22:25:54.042Z,0.65
2023-03-13T22:28:20.757Z,0.63
2023-03-13T22:30:47.373Z,0.76
2023-03-13T22:33:13.974Z,0.67
2023-03-13T22:35:40.763Z,0.79
2023-03-13T22:38:07.486Z,0.77
2023-03-13T22:40:34.195Z,0.75
2023-03-13T22:43:00.804Z,0.88
2023-03-13T22:45:27.481Z,0.88
2023-03-13T22:47:54.182Z,0.78
2023-03-13T22:50:20.929Z,0.72
2023-03-13T22:52:47.691Z,0.59
2023-03-13T22:55:14.472Z,0.79
2023-03-13T22:57:41.122Z,0.63
2023-03-13T23:00:08.662Z,0.68
2023-03-13T23:02:35.343Z,0.74
2023-03-13T23:05:01.987Z,0.63
2023-03-13T23:07:28.961Z,0.76
2023-03-13T23:09:55.980Z,0.96
2023-03-13T23:12:22.627Z,2.84
2023-03-13T23:14:49.245Z,0.70
2023-03-13T23:17:15.936Z,0.60
2023-03-13T23:19:42.581Z,0.90
2023-03-13T23:22:09.260Z,0.87
2023-03-13T23:24:35.978Z,0.88
2023-03-13T23:27:02.700Z,0.67
2023-03-13T23:29:29.316Z,0.64
2023-03-13T23:31:55.951Z,0.60
2023-03-13T23:34:22.632Z,2.00
2023-03-13T23:36:49.501Z,0.60
2023-03-13T23:39:16.182Z,0.78
2023-03-13T23:41:42.783Z,0.76
2023-03-13T23:44:09.395Z,0.63
2023-03-13T23:46:36.022Z,0.91
2023-03-13T23:49:02.802Z,0.84
2023-03-13T23:51:29.513Z,0.68
2023-03-13T23:53:56.148Z,0.95
2023-03-13T23:56:22.984Z,0.77
2023-03-13T23:58:49.740Z,0.58
